createdAt,value
2018-12-22T00:02:18.142Z,87.00
2018-12-22T00:04:45.880Z,95.67
2018-12-22T00:07:13.667Z,89.30
2018-12-22T00:09:41.427Z,102.47
2018-12-22T00:12:09.107Z,95.80
2018-12-22T00:14:36.811Z,84.70
2018-12-22T00:17:04.579Z,97.77
2018-12-22T00:19:32.278Z,92.67
2018-12-22T00:22:00.004Z,99.70
2018-12-22T00:24:27.660Z,93.27
2018-12-22T00:26:55.319Z,99.33
2018-12-22T00:29:23.013Z,101.67
2018-12-22T00:31:50.781Z,104.50
2018-12-22T00:34:18.503Z,100.03
2018-12-22T00:36:46.257Z,99.83
2018-12-22T00:39:14.044Z,104.60
2018-12-22T00:41:41.712Z,114.10
2018-12-22T00:44:09.433Z,111.20
2018-12-22T00:46:37.132Z,105.27
2018-12-22T00:49:04.815Z,110.80
2018-12-22T00:51:32.579Z,112.87
2018-12-22T00:54:00.255Z,108.63
2018-12-22T00:56:27.976Z,108.67
2018-12-22T00:58:55.772Z,122.73
2018-12-22T01:01:23.500Z,114.50
2018-12-22T01:03:51.169Z,110.07
2018-12-22T01:06:18.956Z,104.03
2018-12-22T01:08:46.658Z,113.83
2018-12-22T01:11:14.326Z,117.63
2018-12-22T01:13:42.039Z,107.93
2018-12-22T01:16:09.770Z,103.90
2018-12-22T01:18:37.448Z,105.57
2018-12-22T01:21:05.299Z,114.53
2018-12-22T01:23:32.940Z,118.73
2018-12-22T01:26:00.589Z,114.10
2018-12-22T01:28:28.300Z,112.43
2018-12-22T01:30:56.008Z,122.70
2018-12-22T01:33:23.646Z,111.47
2018-12-22T01:35:51.464Z,117.83
2018-12-22T01:38:19.280Z,113.33
2018-12-22T01:40:46.970Z,126.20
2018-12-22T01:43:14.671Z,124.30
2018-12-22T01:45:42.502Z,131.10
2018-12-22T01:48:10.188Z,113.23
2018-12-22T01:50:37.913Z,125.63
2018-12-22T01:53:05.572Z,123.13
2018-12-22T01:55:33.243Z,120.47
2018-12-22T01:58:01.000Z,121.23
2018-12-22T02:00:28.708Z,121.13
2018-12-22T02:02:56.438Z,125.80
2018-12-22T02:05:24.158Z,128.07
2018-12-22T02:07:51.864Z,127.20
2018-12-22T02:10:19.550Z,121.13
2018-12-22T02:12:47.283Z,107.43
2018-12-22T02:15:14.957Z,108.03
2018-12-22T02:17:42.669Z,112.40
2018-12-22T02:20:10.355Z,111.37
2018-12-22T02:22:38.039Z,121.47
2018-12-22T02:25:05.980Z,108.30
2018-12-22T02:27:33.674Z,99.87
2018-12-22T02:30:01.368Z,108.60
2018-12-22T02:32:29.132Z,104.70
2018-12-22T02:34:56.869Z,101.50
2018-12-22T02:37:24.569Z,108.03
2018-12-22T02:39:52.285Z,113.30
2018-12-22T02:42:19.962Z,117.73
2018-12-22T02:44:47.699Z,114.73
2018-12-22T02:47:15.384Z,100.73
2018-12-22T02:49:43.109Z,91.77
2018-12-22T02:52:10.825Z,86.27
2018-12-22T02:54:38.529Z,103.47
2018-12-22T02:57:06.254Z,97.53
2018-12-22T02:59:33.909Z,95.63
2018-12-22T03:02:01.597Z,95.73
2018-12-22T03:04:29.283Z,95.50
2018-12-22T03:06:57.123Z,94.77
2018-12-22T03:09:24.901Z,98.97
2018-12-22T03:11:52.558Z,101.77
2018-12-22T03:14:20.223Z,103.17
2018-12-22T03:16:47.883Z,103.83
2018-12-22T03:19:15.623Z,111.27
2018-12-22T03:21:43.322Z,108.93
2018-12-22T03:24:11.145Z,104.27
2018-12-22T03:26:38.861Z,110.70
2018-12-22T03:29:15.228Z,101.47
2018-12-22T03:31:36.218Z,114.33
2018-12-22T03:34:04.043Z,108.77
2018-12-22T03:36:31.835Z,105.63
2018-12-22T03:38:59.620Z,110.83
2018-12-22T03:41:27.336Z,118.00
2018-12-22T03:43:55.042Z,115.50
2018-12-22T03:46:22.713Z,120.93
2018-12-22T03:48:50.457Z,106.70
2018-12-22T03:51:18.117Z,125.27
2018-12-22T03:53:45.789Z,110.40
2018-12-22T03:56:13.511Z,108.63
2018-12-22T03:58:41.167Z,107.93
2018-12-22T04:01:08.895Z,108.77
2018-12-22T04:03:36.615Z,98.80
2018-12-22T04:06:04.317Z,112.77
2018-12-22T04:08:32.005Z,94.53
2018-12-22T04:10:59.761Z,118.13
2018-12-22T04:13:27.456Z,113.93
2018-12-22T04:15:55.160Z,109.90
2018-12-22T04:18:22.897Z,109.63
2018-12-22T04:20:50.580Z,97.57
2018-12-22T04:23:18.280Z,93.93
2018-12-22T04:25:45.992Z,86.00
2018-12-22T04:28:13.699Z,98.33
2018-12-22T04:30:41.406Z,92.30
2018-12-22T04:33:09.121Z,96.63
2018-12-22T04:35:36.805Z,95.23
2018-12-22T04:38:04.501Z,102.40
2018-12-22T04:40:32.242Z,103.33
2018-12-22T04:42:59.943Z,100.77
2018-12-22T04:45:27.630Z,124.30
2018-12-22T04:47:55.382Z,102.13
2018-12-22T04:50:23.197Z,121.07
2018-12-22T04:52:50.859Z,105.70
2018-12-22T04:55:18.603Z,109.03
2018-12-22T04:57:46.303Z,114.63
2018-12-22T05:00:14.021Z,120.10
2018-12-22T05:02:41.717Z,123.47
2018-12-22T05:05:09.541Z,121.43
2018-12-22T05:07:37.299Z,110.43
2018-12-22T05:10:05.613Z,102.27
2018-12-22T05:12:33.301Z,103.67
2018-12-22T05:15:01.010Z,116.10
2018-12-22T05:17:28.677Z,130.30
2018-12-22T05:19:56.341Z,126.67
2018-12-22T05:22:23.991Z,122.37
2018-12-22T05:24:51.688Z,115.77
2018-12-22T05:27:19.393Z,121.20
2018-12-22T05:29:51.747Z,108.43
2018-12-22T05:32:16.801Z,118.40
2018-12-22T05:34:44.628Z,108.87
2018-12-22T05:37:12.280Z,104.87
2018-12-22T05:39:39.965Z,102.77
2018-12-22T05:42:07.676Z,105.13
2018-12-22T05:44:35.358Z,101.73
2018-12-22T05:47:03.150Z,92.80
2018-12-22T05:49:30.818Z,75.17
2018-12-22T05:51:58.551Z,89.50
2018-12-22T05:54:26.374Z,86.97
2018-12-22T05:56:54.067Z,80.80
2018-12-22T05:59:21.756Z,71.37
2018-12-22T06:01:49.475Z,60.93
2018-12-22T06:04:17.228Z,57.03
2018-12-22T06:06:44.894Z,45.50
2018-12-22T06:09:12.712Z,50.63
2018-12-22T06:11:40.422Z,39.17
2018-12-22T06:14:08.107Z,38.67
2018-12-22T06:16:35.883Z,54.30
2018-12-22T06:19:03.614Z,39.30
2018-12-22T06:21:31.295Z,49.10
2018-12-22T06:23:59.000Z,38.13
2018-12-22T06:26:26.720Z,44.03
2018-12-22T06:28:54.436Z,41.43
2018-12-22T06:31:22.196Z,50.20
2018-12-22T06:33:49.878Z,37.63
2018-12-22T06:36:17.694Z,42.37
2018-12-22T06:38:45.421Z,44.10
2018-12-22T06:41:13.126Z,42.20
2018-12-22T06:43:40.817Z,35.80
2018-12-22T06:46:08.552Z,32.83
2018-12-22T06:48:36.257Z,43.57
2018-12-22T06:51:03.975Z,45.27
2018-12-22T06:53:31.687Z,27.93
2018-12-22T06:55:59.373Z,32.17
2018-12-22T06:58:27.050Z,45.77
2018-12-22T07:00:54.754Z,34.90
2018-12-22T07:03:22.444Z,28.87
2018-12-22T07:05:50.150Z,37.57
2018-12-22T07:08:17.870Z,40.67
2018-12-22T07:10:45.592Z,39.83
2018-12-22T07:13:13.282Z,38.50
2018-12-22T07:15:41.010Z,20.83
2018-12-22T07:18:08.728Z,31.37
2018-12-22T07:20:36.444Z,30.67
2018-12-22T07:23:04.139Z,39.10
2018-12-22T07:25:31.858Z,60.47
2018-12-22T07:27:59.530Z,37.63
2018-12-22T07:30:27.246Z,38.27
2018-12-22T07:32:57.137Z,35.27
2018-12-22T07:35:24.728Z,32.73
2018-12-22T07:37:52.470Z,33.57
2018-12-22T07:40:20.205Z,35.00
2018-12-22T07:42:47.874Z,25.40
2018-12-22T07:45:15.542Z,25.00
2018-12-22T07:47:43.292Z,29.83
2018-12-22T07:50:10.971Z,30.77
2018-12-22T07:52:38.722Z,30.07
2018-12-22T07:55:06.418Z,22.70
2018-12-22T07:57:34.130Z,26.67
2018-12-22T08:00:01.962Z,29.23
2018-12-22T08:02:29.666Z,19.53
2018-12-22T08:04:57.382Z,20.87
2018-12-22T08:07:25.378Z,27.00
2018-12-22T08:09:53.090Z,21.33
2018-12-22T08:12:20.774Z,21.97
2018-12-22T08:14:48.538Z,19.87
2018-12-22T08:17:16.256Z,21.97
2018-12-22T08:19:43.990Z,18.70
2018-12-22T08:22:11.786Z,22.20
2018-12-22T08:24:39.458Z,20.80
2018-12-22T08:27:07.178Z,17.37
2018-12-22T08:29:34.874Z,18.43
2018-12-22T08:32:02.580Z,17.30
2018-12-22T08:34:30.278Z,18.70
2018-12-22T08:36:58.010Z,12.47
2018-12-22T08:39:25.927Z,17.67
2018-12-22T08:41:53.716Z,12.87
2018-12-22T08:44:21.452Z,13.60
2018-12-22T08:46:49.158Z,11.67
2018-12-22T08:49:16.824Z,12.80
2018-12-22T08:51:44.520Z,14.23
2018-12-22T08:54:12.154Z,16.50
2018-12-22T08:56:39.823Z,16.60
2018-12-22T08:59:07.544Z,12.80
2018-12-22T09:01:35.254Z,17.17
2018-12-22T09:04:02.938Z,14.00
2018-12-22T09:06:30.698Z,13.70
2018-12-22T09:08:58.406Z,22.83
2018-12-22T09:11:26.226Z,27.70
2018-12-22T09:13:53.959Z,17.37
2018-12-22T09:16:21.781Z,17.57
2018-12-22T09:18:49.591Z,13.53
2018-12-22T09:21:17.361Z,17.63
2018-12-22T09:23:45.098Z,10.37
2018-12-22T09:26:12.788Z,13.70
2018-12-22T09:28:40.569Z,9.40
2018-12-22T09:31:08.289Z,10.17
2018-12-22T09:33:36.009Z,9.27
2018-12-22T09:36:03.792Z,9.37
2018-12-22T09:38:31.626Z,11.43
2018-12-22T09:40:59.403Z,11.93
2018-12-22T09:43:27.309Z,6.63
2018-12-22T09:45:55.015Z,9.83
2018-12-22T09:48:22.730Z,12.90
2018-12-22T09:50:50.453Z,9.57
2018-12-22T09:53:18.173Z,10.00
2018-12-22T09:55:45.845Z,7.83
2018-12-22T09:58:13.605Z,6.07
2018-12-22T10:00:41.281Z,9.13
2018-12-22T10:03:08.989Z,8.37
2018-12-22T10:05:41.412Z,10.50
2018-12-22T10:08:09.099Z,10.70
2018-12-22T10:10:37.004Z,10.00
2018-12-22T10:13:04.761Z,6.97
2018-12-22T10:15:32.471Z,9.07
2018-12-22T10:18:00.216Z,10.60
2018-12-22T10:20:28.061Z,8.63
2018-12-22T10:22:55.869Z,8.77
2018-12-22T10:25:23.582Z,8.80
2018-12-22T10:27:51.349Z,7.23
2018-12-22T10:30:19.409Z,9.37
2018-12-22T10:32:47.105Z,7.80
2018-12-22T10:35:23.813Z,7.17
2018-12-22T10:37:51.559Z,11.53
2018-12-22T10:40:19.269Z,7.67
2018-12-22T10:42:49.755Z,7.17
2018-12-22T10:45:17.467Z,8.20
2018-12-22T10:47:45.278Z,6.73
2018-12-22T10:50:13.008Z,9.33
2018-12-22T10:52:40.763Z,8.30
2018-12-22T10:55:10.885Z,6.80
2018-12-22T10:57:39.003Z,9.77
2018-12-22T11:00:10.090Z,9.40
2018-12-22T11:02:37.860Z,10.40
2018-12-22T11:05:08.277Z,16.17
2018-12-22T11:07:36.054Z,10.33
2018-12-22T11:10:04.682Z,10.40
2018-12-22T11:12:32.401Z,7.67
2018-12-22T11:15:01.294Z,11.77
2018-12-22T11:17:29.079Z,7.93
2018-12-22T11:19:56.852Z,7.10
2018-12-22T11:22:24.579Z,9.03
2018-12-22T11:24:52.321Z,8.63
2018-12-22T11:27:20.068Z,6.47
2018-12-22T11:29:47.934Z,4.50
2018-12-22T11:32:17.761Z,6.73
2018-12-22T11:34:45.748Z,4.13
2018-12-22T11:37:13.484Z,2.90
2018-12-22T11:39:41.146Z,7.20
2018-12-22T11:42:08.854Z,5.17
2018-12-22T11:44:36.578Z,9.03
2018-12-22T11:47:12.212Z,9.60
2018-12-22T11:49:42.394Z,12.47
2018-12-22T11:52:10.126Z,8.80
2018-12-22T11:54:37.852Z,10.03
2018-12-22T11:57:05.556Z,10.03
2018-12-22T11:59:33.285Z,7.57
2018-12-22T12:02:09.308Z,7.93
2018-12-22T12:04:30.784Z,7.30
2018-12-22T12:06:58.560Z,8.63
2018-12-22T12:09:26.244Z,11.10
2018-12-22T12:11:53.914Z,9.53
2018-12-22T12:14:22.582Z,10.43
2018-12-22T12:19:03.604Z,9.77
2018-12-22T12:21:31.770Z,7.73
2018-12-22T12:24:00.510Z,8.60
2018-12-22T12:26:28.611Z,8.23
2018-12-22T12:28:56.325Z,8.37
2018-12-22T12:31:24.132Z,21.67
2018-12-22T12:33:51.865Z,9.93
2018-12-22T12:36:19.507Z,9.10
2018-12-22T12:38:47.164Z,15.83
2018-12-22T12:41:15.073Z,14.77
2018-12-22T12:43:42.765Z,6.60
2018-12-22T12:46:10.559Z,8.57
2018-12-22T12:48:38.412Z,8.73
2018-12-22T12:51:06.151Z,12.13
2018-12-22T12:53:35.857Z,24.23
2018-12-22T12:56:03.780Z,9.20
2018-12-22T12:58:31.506Z,10.73
2018-12-22T13:00:59.257Z,10.53
2018-12-22T13:03:26.998Z,7.63
2018-12-22T13:05:54.725Z,10.73
2018-12-22T13:08:22.437Z,8.23
2018-12-22T13:10:50.163Z,10.17
2018-12-22T13:13:26.757Z,4.03
2018-12-22T13:15:54.499Z,6.80
2018-12-22T13:18:22.139Z,6.77
2018-12-22T13:20:49.855Z,5.47
2018-12-22T13:23:17.616Z,6.07
2018-12-22T13:25:45.359Z,3.37
2018-12-22T13:28:13.097Z,2.33
2018-12-22T13:30:40.833Z,8.83
2018-12-22T13:33:08.569Z,4.03
2018-12-22T13:35:36.365Z,3.57
2018-12-22T13:38:04.085Z,5.83
2018-12-22T13:40:31.902Z,3.97
2018-12-22T13:43:00.659Z,8.03
2018-12-22T13:45:28.487Z,7.67
2018-12-22T13:47:56.593Z,6.87
2018-12-22T13:50:24.618Z,16.87
2018-12-22T13:52:52.425Z,9.63
2018-12-22T13:55:20.161Z,10.87
2018-12-22T13:57:48.028Z,6.60
2018-12-22T14:00:15.768Z,6.83
2018-12-22T14:02:43.486Z,6.97
2018-12-22T14:05:14.933Z,5.10
2018-12-22T14:07:42.689Z,8.17
2018-12-22T14:10:10.710Z,10.13
2018-12-22T14:12:38.399Z,9.03
2018-12-22T14:15:09.749Z,14.90
2018-12-22T14:17:44.557Z,7.77
2018-12-22T14:20:15.076Z,13.53
2018-12-22T14:22:43.856Z,7.53
2018-12-22T14:25:28.777Z,9.77
2018-12-22T14:27:56.641Z,13.13
2018-12-22T14:30:25.140Z,10.83
2018-12-22T14:32:52.935Z,11.33
2018-12-22T14:35:34.203Z,8.97
2018-12-22T14:38:02.136Z,9.03
2018-12-22T14:40:29.867Z,11.90
2018-12-22T14:42:57.555Z,18.10
2018-12-22T14:45:25.239Z,9.97
2018-12-22T14:47:53.014Z,10.03
2018-12-22T14:50:20.989Z,10.33
2018-12-22T14:52:48.729Z,9.93
2018-12-22T14:55:16.437Z,10.50
2018-12-22T14:57:49.737Z,12.57
2018-12-22T15:00:17.429Z,8.60
2018-12-22T15:02:45.143Z,8.30
2018-12-22T15:05:12.902Z,7.70
2018-12-22T15:07:40.663Z,8.17
2018-12-22T15:10:08.658Z,6.93
2018-12-22T15:12:36.439Z,9.47
2018-12-22T15:15:05.358Z,8.73
2018-12-22T15:17:33.449Z,9.57
2018-12-22T15:20:01.158Z,11.83
2018-12-22T15:22:28.937Z,8.70
2018-12-22T15:24:56.690Z,13.07
2018-12-22T15:27:24.420Z,6.80
2018-12-22T15:29:52.133Z,12.03
2018-12-22T15:32:19.860Z,9.97
2018-12-22T15:34:47.556Z,12.67
2018-12-22T15:37:15.364Z,10.67
2018-12-22T15:39:43.024Z,15.07
2018-12-22T15:42:10.824Z,10.80
2018-12-22T15:44:38.532Z,13.80
2018-12-22T15:47:06.298Z,18.20
2018-12-22T15:49:34.454Z,21.80
2018-12-22T15:52:02.152Z,12.83
2018-12-22T15:54:29.830Z,16.70
2018-12-22T15:56:57.620Z,15.53
2018-12-22T15:59:25.452Z,10.83
2018-12-22T16:01:53.168Z,9.23
2018-12-22T16:04:20.894Z,9.70
2018-12-22T16:06:48.623Z,10.23
2018-12-22T16:09:16.390Z,11.13
2018-12-22T16:11:44.220Z,9.70
2018-12-22T16:14:11.994Z,10.97
2018-12-22T16:16:39.766Z,16.43
2018-12-22T16:19:07.512Z,14.10
2018-12-22T16:21:35.221Z,13.27
2018-12-22T16:24:03.093Z,21.00
2018-12-22T16:26:33.117Z,18.40
2018-12-22T16:29:09.222Z,23.60
2018-12-22T16:31:36.972Z,77.17
2018-12-22T16:34:04.688Z,77.87
2018-12-22T16:36:32.348Z,32.27
2018-12-22T16:39:00.386Z,31.93
2018-12-22T16:41:28.112Z,71.27
2018-12-22T16:43:55.864Z,33.30
2018-12-22T16:46:23.686Z,24.60
2018-12-22T16:48:51.385Z,28.27
2018-12-22T16:51:19.146Z,25.87
2018-12-22T16:53:46.932Z,22.47
2018-12-22T16:56:14.673Z,24.93
2018-12-22T16:58:45.460Z,23.10
2018-12-22T17:02:22.699Z,17.67
2018-12-22T17:04:50.356Z,16.57
2018-12-22T17:07:18.062Z,13.63
2018-12-22T17:09:45.780Z,18.47
2018-12-22T17:12:13.460Z,15.90
2018-12-22T17:14:41.192Z,24.60
2018-12-22T17:17:08.880Z,24.67
2018-12-22T17:19:36.530Z,13.80
2018-12-22T17:22:08.980Z,15.07
2018-12-22T17:24:58.880Z,17.50
2018-12-22T17:27:26.636Z,15.03
2018-12-22T17:29:54.320Z,14.50
2018-12-22T17:32:22.065Z,17.40
2018-12-22T17:34:50.238Z,21.20
2018-12-22T17:37:18.332Z,19.57
2018-12-22T17:39:46.165Z,14.17
2018-12-22T17:42:14.060Z,26.23
2018-12-22T17:44:41.800Z,23.50
2018-12-22T17:47:09.495Z,19.93
2018-12-22T17:49:37.263Z,23.73
2018-12-22T17:52:05.067Z,27.60
2018-12-22T17:54:32.869Z,19.53
2018-12-22T17:57:00.588Z,20.93
2018-12-22T17:59:28.233Z,14.97
2018-12-22T18:01:56.093Z,25.23
2018-12-22T18:04:23.906Z,21.17
2018-12-22T18:06:51.589Z,18.43
2018-12-22T18:09:19.413Z,24.87
2018-12-22T18:11:47.172Z,30.63
2018-12-22T18:14:14.897Z,16.83
2018-12-22T18:16:42.598Z,29.67
2018-12-22T18:19:10.289Z,23.63
2018-12-22T18:21:37.967Z,23.83
2018-12-22T18:24:05.675Z,19.77
2018-12-22T18:26:33.421Z,23.23
2018-12-22T18:29:01.235Z,22.87
2018-12-22T18:31:28.981Z,26.20
2018-12-22T18:33:56.724Z,24.90
2018-12-22T18:36:24.425Z,15.33
2018-12-22T18:38:52.234Z,22.47
2018-12-22T18:41:19.979Z,25.67
2018-12-22T18:43:47.690Z,29.10
2018-12-22T18:46:15.456Z,17.47
2018-12-22T18:48:43.221Z,24.27
2018-12-22T18:51:11.024Z,22.57
2018-12-22T18:53:38.905Z,29.17
2018-12-22T18:56:06.691Z,24.60
2018-12-22T18:58:34.337Z,22.83
2018-12-22T19:01:02.064Z,15.00
2018-12-22T19:03:29.781Z,24.80
2018-12-22T19:05:57.469Z,26.10
2018-12-22T19:08:25.222Z,18.47
2018-12-22T19:10:57.693Z,26.20
2018-12-22T19:13:25.695Z,26.70
2018-12-22T19:15:53.406Z,26.80
2018-12-22T19:18:21.149Z,22.27
2018-12-22T19:20:51.015Z,20.63
2018-12-22T19:23:20.034Z,24.60
2018-12-22T19:25:47.799Z,20.70
2018-12-22T19:28:15.511Z,29.63
2018-12-22T19:30:44.479Z,28.97
2018-12-22T19:33:12.463Z,20.83
2018-12-22T19:35:40.173Z,25.77
2018-12-22T19:38:07.845Z,22.10
2018-12-22T19:40:35.553Z,26.83
2018-12-22T19:43:03.341Z,30.13
2018-12-22T19:45:31.079Z,23.17
2018-12-22T19:47:59.018Z,33.27
2018-12-22T19:50:26.856Z,33.33
2018-12-22T19:52:54.536Z,23.97
2018-12-22T19:55:22.289Z,25.23
2018-12-22T19:57:50.088Z,19.60
2018-12-22T20:00:17.842Z,27.83
2018-12-22T20:02:45.540Z,21.57
2018-12-22T20:05:13.284Z,24.70
2018-12-22T20:07:40.983Z,24.60
2018-12-22T20:10:08.710Z,17.77
2018-12-22T20:12:36.420Z,14.27
2018-12-22T20:15:04.539Z,29.53
2018-12-22T20:17:32.272Z,25.37
2018-12-22T20:20:00.048Z,23.13
2018-12-22T20:22:27.924Z,25.77
2018-12-22T20:24:55.649Z,81.47
2018-12-22T20:27:23.362Z,82.57
2018-12-22T20:29:52.094Z,52.67
2018-12-22T20:32:19.844Z,78.50
2018-12-22T20:34:47.704Z,51.00
2018-12-22T20:37:15.472Z,49.70
2018-12-22T20:39:43.234Z,24.30
2018-12-22T20:42:10.923Z,25.77
2018-12-22T20:44:38.613Z,31.97
2018-12-22T20:47:06.427Z,24.90
2018-12-22T20:49:34.159Z,23.13
2018-12-22T20:52:01.847Z,28.73
2018-12-22T20:54:29.562Z,32.03
2018-12-22T20:56:57.301Z,27.67
2018-12-22T20:59:25.065Z,32.43
2018-12-22T21:01:52.770Z,35.80
2018-12-22T21:04:20.488Z,34.40
2018-12-22T21:06:48.250Z,23.53
2018-12-22T21:09:16.026Z,33.43
2018-12-22T21:11:43.724Z,30.37
2018-12-22T21:14:11.476Z,30.20
2018-12-22T21:16:39.184Z,39.10
2018-12-22T21:19:06.900Z,29.67
2018-12-22T21:21:34.644Z,28.47
2018-12-22T21:24:02.404Z,30.63
2018-12-22T21:26:30.168Z,27.57
2018-12-22T21:28:58.000Z,35.43
2018-12-22T21:31:25.740Z,34.17
2018-12-22T21:33:53.460Z,20.97
2018-12-22T21:36:21.166Z,27.27
2018-12-22T21:38:48.889Z,26.90
2018-12-22T21:41:16.581Z,29.00
2018-12-22T21:43:44.352Z,32.47
2018-12-22T21:46:12.080Z,28.17
2018-12-22T21:48:39.796Z,23.00
2018-12-22T21:51:07.712Z,20.40
2018-12-22T21:53:35.573Z,23.17
2018-12-22T21:56:03.391Z,30.07
2018-12-22T21:58:31.158Z,25.77
2018-12-22T22:00:58.866Z,26.93
2018-12-22T22:03:26.680Z,24.97
2018-12-22T22:05:54.402Z,26.80
2018-12-22T22:08:22.181Z,29.60
2018-12-22T22:10:49.942Z,26.90
2018-12-22T22:13:17.634Z,25.57
2018-12-22T22:15:45.552Z,20.97
2018-12-22T22:18:13.391Z,29.77
2018-12-22T22:20:41.120Z,24.50
2018-12-22T22:23:08.938Z,30.70
2018-12-22T22:25:36.781Z,25.07
2018-12-22T22:28:04.536Z,31.17
2018-12-22T22:30:32.345Z,30.80
2018-12-22T22:33:00.129Z,29.07
2018-12-22T22:35:27.845Z,31.53
2018-12-22T22:37:55.573Z,31.67
2018-12-22T22:40:23.289Z,31.40
2018-12-22T22:42:51.120Z,32.53
2018-12-22T22:45:18.907Z,31.57
2018-12-22T22:47:46.667Z,32.63
2018-12-22T22:50:14.417Z,34.43
2018-12-22T22:52:42.300Z,27.37
2018-12-22T22:55:10.037Z,28.73
2018-12-22T22:57:37.761Z,29.60
2018-12-22T23:00:09.784Z,35.90
2018-12-22T23:02:37.621Z,38.83
2018-12-22T23:05:05.477Z,38.90
2018-12-22T23:07:33.312Z,39.97
2018-12-22T23:10:01.935Z,42.10
2018-12-22T23:12:29.618Z,36.20
2018-12-22T23:14:57.365Z,43.83
2018-12-22T23:17:25.060Z,40.57
2018-12-22T23:19:52.927Z,31.23
2018-12-22T23:22:20.895Z,37.97
2018-12-22T23:24:48.698Z,45.13
2018-12-22T23:27:16.411Z,32.67
2018-12-22T23:29:44.228Z,39.50
2018-12-22T23:32:11.948Z,35.80
2018-12-22T23:34:39.680Z,35.00
2018-12-22T23:37:07.504Z,39.23
2018-12-22T23:39:35.264Z,36.37
2018-12-22T23:42:03.122Z,37.50
2018-12-22T23:44:30.983Z,34.30
2018-12-22T23:46:58.759Z,38.53
2018-12-22T23:49:26.548Z,41.57
2018-12-22T23:51:54.311Z,35.20
2018-12-22T23:54:21.990Z,33.87
2018-12-22T23:56:49.694Z,38.57
2018-12-22T23:59:17.440Z,41.90
